Time;durP1;ratioP1;P1;durP2;ratioP2;P2;SDS_P1;SDS_P2;PMS_P1;PMS_P2;Temp;Humidity;BMP_temperature;BMP_pressure;BME280_temperature;BME280_humidity;BME280_pressure;Samples;Min_cycle;Max_cycle;Signal;HPM_P1;HPM_P2
2022/12/29 00:02:23;;;;;;;2.20;1.97;;;;;;;10.04;100.00;98973.41;5104395;28;20502;-63
2022/12/29 00:04:50;;;;;;;2.13;1.60;;;;;;;10.02;100.00;98975.44;5104553;28;20478;-63
2022/12/29 00:07:19;;;;;;;2.73;1.47;;;;;;;10.02;100.00;98960.25;5097386;28;20453;-62
2022/12/29 00:09:46;;;;;;;2.20;1.70;;;;;;;10.20;100.00;98967.22;5083133;28;20478;-62
2022/12/29 00:12:13;;;;;;;1.57;1.40;;;;;;;10.08;100.00;98950.72;5086625;28;20526;-63
2022/12/29 00:17:24;;;;;;;1.70;1.50;;;;;;;10.11;100.00;98945.03;5082888;28;20497;-62
2022/12/29 00:36:24;;;;;;;1.43;1.30;;;;;;;10.14;100.00;98899.31;5083819;28;20501;-62
2022/12/29 00:44:23;;;;;;;2.50;1.63;;;;;;;10.22;100.00;98917.13;5081934;28;20435;-62
2022/12/29 00:46:49;;;;;;;4.80;1.40;;;;;;;10.13;100.00;98909.13;5082987;28;20495;-62
2022/12/29 00:49:31;;;;;;;1.27;1.17;;;;;;;10.26;100.00;98913.09;5083383;28;20482;-62
2022/12/29 00:52:00;;;;;;;3.03;1.63;;;;;;;10.20;100.00;98900.44;5081006;28;20479;-62
2022/12/29 00:54:28;;;;;;;1.80;1.30;;;;;;;10.21;100.00;98897.59;5083411;28;20443;-62
2022/12/29 00:56:55;;;;;;;1.40;1.23;;;;;;;10.21;100.00;98904.75;5099113;28;20474;-62
2022/12/29 00:59:23;;;;;;;2.27;1.30;;;;;;;10.12;100.00;98888.78;5102150;28;20459;-62
2022/12/29 01:01:50;;;;;;;1.30;1.20;;;;;;;10.12;100.00;98887.94;5102576;28;20878;-61
2022/12/29 01:04:17;;;;;;;1.40;1.17;;;;;;;10.14;100.00;98888.63;5103681;28;20493;-62
2022/12/29 01:06:44;;;;;;;1.20;1.10;;;;;;;10.22;100.00;98890.41;5102051;28;20866;-61
2022/12/29 01:11:57;;;;;;;1.53;1.20;;;;;;;10.18;100.00;98882.75;5102639;28;20995;-62
2022/12/29 01:14:25;;;;;;;1.70;1.33;;;;;;;10.14;100.00;98861.91;5102283;28;20452;-62
2022/12/29 01:16:52;;;;;;;1.40;1.17;;;;;;;10.18;100.00;98885.41;5101694;28;20497;-62
2022/12/29 01:19:19;;;;;;;2.47;1.47;;;;;;;10.24;100.00;98881.25;5102422;28;20486;-62
2022/12/29 01:21:46;;;;;;;1.43;1.23;;;;;;;10.18;100.00;98884.59;5102270;28;20467;-62
2022/12/29 01:24:13;;;;;;;1.30;1.20;;;;;;;10.27;100.00;98869.38;5102631;28;20443;-62
2022/12/29 01:26:40;;;;;;;1.60;1.20;;;;;;;10.27;100.00;98878.22;5085272;28;20476;-62
2022/12/29 01:29:08;;;;;;;1.70;1.30;;;;;;;10.28;100.00;98853.19;5088409;28;20444;-62
2022/12/29 01:31:35;;;;;;;1.57;1.23;;;;;;;10.33;100.00;98869.53;5091383;28;20511;-62
2022/12/29 01:34:02;;;;;;;1.70;1.30;;;;;;;10.34;100.00;98865.03;5102919;28;20428;-61
2022/12/29 01:36:29;;;;;;;1.47;1.33;;;;;;;10.38;100.00;98855.69;5101965;28;20478;-62
2022/12/29 01:38:56;;;;;;;1.43;0.97;;;;;;;10.28;100.00;98853.19;5084705;28;20544;-63
2022/12/29 01:41:23;;;;;;;1.40;1.30;;;;;;;10.21;100.00;98844.19;5068749;28;20483;-62
2022/12/29 01:43:53;;;;;;;1.30;0.97;;;;;;;10.24;100.00;98851.00;5102384;28;20443;-63
2022/12/29 01:46:36;;;;;;;1.80;1.20;;;;;;;10.37;100.00;98848.66;5102672;28;20467;-63
2022/12/29 01:49:09;;;;;;;1.83;0.90;;;;;;;10.36;100.00;98845.16;5101214;28;20552;-62
2022/12/29 01:51:38;;;;;;;1.10;1.00;;;;;;;10.38;100.00;98845.00;5101791;28;20471;-63
2022/12/29 01:54:09;;;;;;;1.13;0.90;;;;;;;10.29;100.00;98836.13;5102524;28;20439;-62
2022/12/29 01:56:36;;;;;;;1.30;1.20;;;;;;;10.32;100.00;98830.47;5101627;28;20479;-63
2022/12/29 01:59:06;;;;;;;1.10;0.90;;;;;;;10.32;100.00;98837.66;5082709;28;20456;-63
2022/12/29 02:01:33;;;;;;;1.37;1.03;;;;;;;10.30;100.00;98836.97;5091364;28;20514;-62
2022/12/29 02:04:01;;;;;;;0.80;0.80;;;;;;;10.43;100.00;98829.25;5086032;28;20440;-62
2022/12/29 02:06:31;;;;;;;1.33;0.80;;;;;;;10.46;100.00;98828.91;5084464;28;20484;-62
2022/12/29 02:08:57;;;;;;;1.00;0.70;;;;;;;10.42;100.00;98853.50;5081608;28;20483;-62
2022/12/29 02:11:26;;;;;;;1.10;1.00;;;;;;;10.13;100.00;98852.22;5081248;28;20484;-63
2022/12/29 02:13:53;;;;;;;1.10;1.00;;;;;;;10.02;100.00;98852.59;5084562;28;22480;-62
2022/12/29 02:16:32;;;;;;;1.00;0.90;;;;;;;9.98;100.00;98846.75;5091941;28;20499;-66
2022/12/29 02:19:28;;;;;;;1.10;1.00;;;;;;;9.86;100.00;98854.31;5061437;28;20453;-67
2022/12/29 02:22:03;;;;;;;1.10;0.97;;;;;;;9.93;100.00;98849.09;5089513;28;20507;-66
2022/12/29 02:25:04;;;;;;;0.80;0.70;;;;;;;9.86;100.00;98843.63;5085517;28;20440;-66
2022/12/29 02:27:50;;;;;;;0.77;0.77;;;;;;;9.86;100.00;98848.97;5080706;28;20475;-66
2022/12/29 02:30:39;;;;;;;1.20;1.10;;;;;;;9.91;100.00;98840.44;5083465;28;20528;-66
2022/12/29 02:33:12;;;;;;;1.40;1.20;;;;;;;9.87;100.00;98834.59;5096368;28;20499;-66
2022/12/29 02:35:45;;;;;;;1.40;1.07;;;;;;;9.94;100.00;98842.78;5093555;28;20463;-66
2022/12/29 02:38:17;;;;;;;0.80;0.80;;;;;;;10.06;100.00;98838.72;5084902;28;20470;-65
2022/12/29 02:40:47;;;;;;;2.10;0.90;;;;;;;10.02;100.00;98837.41;5086164;28;20502;-66
2022/12/29 02:43:21;;;;;;;1.00;1.00;;;;;;;10.14;100.00;98829.88;5095145;28;20800;-66
2022/12/29 02:45:55;;;;;;;0.97;0.83;;;;;;;10.18;100.00;98829.31;5085574;28;20483;-66
2022/12/29 02:48:26;;;;;;;0.60;0.60;;;;;;;10.11;100.00;98840.88;5080568;28;20873;-67
2022/12/29 02:50:57;;;;;;;1.00;0.80;;;;;;;10.20;100.00;98828.34;5080566;28;20476;-66
2022/12/29 02:56:05;;;;;;;0.97;0.83;;;;;;;10.26;100.00;98819.63;5081099;28;20464;-66
2022/12/29 02:58:32;;;;;;;0.70;0.70;;;;;;;10.29;100.00;98803.25;5080780;28;20479;-65
2022/12/29 03:01:13;;;;;;;0.83;0.80;;;;;;;10.38;100.00;98807.59;5082278;28;20468;-62
2022/12/29 03:03:48;;;;;;;1.00;0.80;;;;;;;10.44;100.00;98798.84;5060948;28;20437;-62
2022/12/29 03:06:29;;;;;;;3.17;1.30;;;;;;;10.46;100.00;98802.19;5076200;28;20479;-62
2022/12/29 03:09:01;;;;;;;0.70;0.70;;;;;;;10.58;100.00;98796.44;5100736;28;20451;-62
2022/12/29 03:17:16;;;;;;;0.73;0.60;;;;;;;10.83;100.00;98792.63;5100425;28;20706;-63
2022/12/29 03:19:46;;;;;;;0.67;0.60;;;;;;;10.79;100.00;98783.28;5100003;28;20490;-63
2022/12/29 03:22:30;;;;;;;0.60;0.60;;;;;;;10.83;100.00;98792.63;5100726;28;20467;-63
2022/12/29 03:24:59;;;;;;;1.17;0.60;;;;;;;10.99;100.00;98796.16;5101504;28;20527;-61
2022/12/29 03:27:30;;;;;;;0.60;0.47;;;;;;;10.99;100.00;98777.44;5067087;28;20509;-62
2022/12/29 03:29:59;;;;;;;1.30;1.20;;;;;;;10.98;100.00;98779.28;5082138;28;20455;-63
2022/12/29 03:32:33;;;;;;;0.70;0.60;;;;;;;11.00;100.00;98787.94;5099910;28;20479;-63
2022/12/29 03:35:00;;;;;;;0.90;0.57;;;;;;;10.95;100.00;98784.97;5101083;28;20436;-64
2022/12/29 03:37:30;;;;;;;0.57;0.47;;;;;;;11.06;100.00;98787.25;5100248;28;20555;-63
2022/12/29 03:39:57;;;;;;;0.60;0.50;;;;;;;11.04;100.00;98789.28;5100715;28;20470;-64
2022/12/29 03:42:27;;;;;;;0.93;0.43;;;;;;;11.03;100.00;98778.75;5100222;28;20474;-63
2022/12/29 03:44:55;;;;;;;1.17;0.57;;;;;;;11.10;100.00;98769.00;5100025;28;20455;-63
2022/12/29 03:47:23;;;;;;;0.80;0.60;;;;;;;11.09;100.00;98761.97;5099822;28;20945;-63
2022/12/29 03:49:51;;;;;;;0.60;0.50;;;;;;;11.04;100.00;98765.22;5100360;28;20473;-62
2022/12/29 03:52:19;;;;;;;0.60;0.53;;;;;;;11.03;100.00;98757.38;5099838;28;20471;-63
2022/12/29 03:54:46;;;;;;;1.60;0.60;;;;;;;10.99;100.00;98746.19;5100546;28;20451;-63
2022/12/29 03:57:12;;;;;;;0.80;0.60;;;;;;;11.23;99.93;98771.03;5099911;28;20844;-63
2022/12/29 03:59:39;;;;;;;0.70;0.57;;;;;;;11.14;99.62;98775.63;5100331;28;20451;-63
2022/12/29 04:02:06;;;;;;;0.73;0.60;;;;;;;11.21;99.21;98770.41;5099808;28;20516;-63
2022/12/29 04:04:32;;;;;;;0.70;0.70;;;;;;;11.11;99.39;98773.34;5101004;28;20436;-63
2022/12/29 04:07:01;;;;;;;0.70;0.57;;;;;;;11.15;98.73;98768.47;5087166;28;20510;-63
2022/12/29 04:09:27;;;;;;;1.00;0.67;;;;;;;11.21;98.09;98763.19;5085544;28;21026;-62
2022/12/29 04:11:54;;;;;;;1.77;0.60;;;;;;;11.21;96.72;98754.34;5088410;28;20502;-63
2022/12/29 04:14:21;;;;;;;0.80;0.60;;;;;;;11.30;96.53;98761.28;5100002;28;20487;-62
2022/12/29 04:16:48;;;;;;;2.60;0.60;;;;;;;11.30;95.91;98759.44;5099704;28;20467;-62
2022/12/29 04:19:14;;;;;;;1.17;0.80;;;;;;;11.31;96.08;98763.78;5099582;28;20455;-62
2022/12/29 04:21:41;;;;;;;2.03;0.80;;;;;;;11.29;95.45;98767.66;5101543;28;20505;-62
2022/12/29 04:24:09;;;;;;;1.00;0.70;;;;;;;11.24;95.45;98765.50;5104718;28;20431;-62
2022/12/29 04:26:36;;;;;;;1.07;0.80;;;;;;;11.30;94.43;98778.19;5103651;28;20471;-63
2022/12/29 04:29:03;;;;;;;1.93;0.90;;;;;;;11.22;94.53;98769.41;5102999;28;20481;-63
2022/12/29 04:31:30;;;;;;;1.57;1.00;;;;;;;11.36;94.12;98773.94;5103230;28;20463;-63
2022/12/29 04:33:57;;;;;;;0.80;0.60;;;;;;;11.33;93.35;98750.22;5104204;28;20578;-63
2022/12/29 04:36:23;;;;;;;0.60;0.57;;;;;;;11.39;93.85;98768.22;5103182;28;20913;-63
2022/12/29 04:38:50;;;;;;;1.23;0.60;;;;;;;11.32;95.10;98764.63;5103720;28;20483;-63
2022/12/29 04:41:19;;;;;;;0.90;0.70;;;;;;;11.13;97.95;98771.31;5103421;28;21040;-63
2022/12/29 04:43:45;;;;;;;1.40;0.70;;;;;;;11.00;99.87;98771.09;5089652;28;20436;-63
2022/12/29 04:46:12;;;;;;;1.10;0.73;;;;;;;10.85;100.00;98758.50;5089307;28;20525;-64
2022/12/29 04:48:39;;;;;;;1.37;0.80;;;;;;;10.83;100.00;98767.69;5091038;28;20490;-70
2022/12/29 04:51:06;;;;;;;1.27;0.87;;;;;;;10.90;100.00;98758.81;5091421;28;20507;-72
2022/12/29 04:53:32;;;;;;;1.40;0.70;;;;;;;10.87;100.00;98753.81;5091077;28;20461;-71
2022/12/29 04:55:59;;;;;;;1.93;0.60;;;;;;;10.79;100.00;98763.72;5092421;28;20468;-71
2022/12/29 04:58:27;;;;;;;1.17;0.60;;;;;;;10.95;100.00;98752.06;5103057;28;20483;-71
2022/12/29 05:00:54;;;;;;;1.70;1.10;;;;;;;10.74;100.00;98735.72;5097671;28;20515;-70
2022/12/29 05:03:21;;;;;;;0.90;0.77;;;;;;;10.71;100.00;98754.78;5084036;28;20449;-72
2022/12/29 05:05:49;;;;;;;0.70;0.53;;;;;;;10.64;100.00;98751.16;5099340;28;21081;-71
2022/12/29 05:08:16;;;;;;;1.27;0.73;;;;;;;10.66;100.00;98757.13;5090650;28;20459;-71
2022/12/29 05:10:45;;;;;;;1.87;0.70;;;;;;;10.66;100.00;98757.13;5101322;28;20467;-71
2022/12/29 05:13:12;;;;;;;1.90;0.80;;;;;;;10.58;100.00;98746.50;5103607;28;20548;-71
2022/12/29 05:15:40;;;;;;;0.60;0.50;;;;;;;10.74;100.00;98740.19;5101007;28;20482;-71
2022/12/29 05:18:06;;;;;;;2.10;0.70;;;;;;;10.67;100.00;98731.25;5089159;28;20447;-72
2022/12/29 05:20:33;;;;;;;1.77;0.63;;;;;;;10.72;100.00;98750.25;5101988;28;20983;-72
2022/12/29 05:23:00;;;;;;;1.77;1.30;;;;;;;10.82;100.00;98728.63;5083811;28;20440;-72
2022/12/29 05:25:26;;;;;;;1.10;0.90;;;;;;;10.85;100.00;98726.44;5092359;28;20557;-72
2022/12/29 05:27:53;;;;;;;5.40;0.80;;;;;;;10.95;100.00;98722.66;5085341;28;20480;-72
2022/12/29 05:30:20;;;;;;;2.00;0.80;;;;;;;10.86;100.00;98712.03;5102022;28;20455;-63
2022/12/29 05:32:48;;;;;;;1.37;0.70;;;;;;;10.78;100.00;98720.13;5086553;28;20445;-63
2022/12/29 05:35:15;;;;;;;1.80;0.83;;;;;;;10.79;100.00;98710.25;5081773;28;20480;-63
2022/12/29 05:37:42;;;;;;;1.40;0.70;;;;;;;10.85;100.00;98713.06;5100384;28;20502;-62
2022/12/29 05:40:09;;;;;;;0.80;0.70;;;;;;;10.97;100.00;98712.59;5097198;28;20490;-63
2022/12/29 05:42:36;;;;;;;1.20;0.60;;;;;;;10.95;100.00;98725.34;5102195;28;20956;-63
2022/12/29 05:45:03;;;;;;;1.27;0.80;;;;;;;10.97;99.42;98699.25;5092357;28;20522;-63
2022/12/29 05:47:30;;;;;;;0.90;0.70;;;;;;;11.03;98.92;98693.19;5090650;28;20479;-64
2022/12/29 05:49:58;;;;;;;0.70;0.63;;;;;;;11.14;98.30;98702.59;5094967;28;20789;-64
2022/12/29 05:52:25;;;;;;;0.87;0.60;;;;;;;11.14;98.05;98702.59;5102294;28;20506;-64
2022/12/29 05:54:52;;;;;;;2.67;0.80;;;;;;;11.12;97.80;98705.44;5088000;28;20503;-64
2022/12/29 05:57:19;;;;;;;1.40;0.60;;;;;;;11.12;97.48;98695.56;5088293;28;20499;-64
2022/12/29 05:59:45;;;;;;;1.73;0.80;;;;;;;11.20;97.34;98713.41;5089268;28;21025;-64
2022/12/29 06:02:12;;;;;;;2.17;1.00;;;;;;;11.22;97.22;98710.56;5096547;28;21038;-64
2022/12/29 06:04:39;;;;;;;0.70;0.40;;;;;;;11.30;96.33;98710.44;5100626;28;20496;-64
2022/12/29 06:07:08;;;;;;;0.70;0.70;;;;;;;11.26;96.22;98712.66;5101430;28;21106;-63
2022/12/29 06:09:34;;;;;;;1.87;0.70;;;;;;;11.40;95.82;98708.34;5081111;28;20965;-63
2022/12/29 06:12:01;;;;;;;1.20;0.70;;;;;;;11.37;95.30;98695.34;5090505;28;21032;-63
2022/12/29 06:14:28;;;;;;;0.87;0.60;;;;;;;11.38;94.81;98694.31;5077443;28;20475;-63
2022/12/29 06:16:54;;;;;;;0.70;0.67;;;;;;;11.43;94.21;98694.59;5101609;28;20463;-63
2022/12/29 06:19:21;;;;;;;1.13;0.80;;;;;;;11.54;93.35;98690.63;5100836;28;20520;-63
2022/12/29 06:21:48;;;;;;;1.40;0.90;;;;;;;11.47;93.71;98738.72;5101051;28;20506;-63
2022/12/29 06:24:16;;;;;;;1.80;0.67;;;;;;;11.40;95.44;98771.72;5080387;28;20472;-63
2022/12/29 06:26:43;;;;;;;2.03;0.83;;;;;;;10.37;100.00;98773.84;5064774;28;20507;-63
2022/12/29 06:29:10;;;;;;;1.50;0.60;;;;;;;10.02;100.00;98788.53;5076139;28;20478;-63
2022/12/29 06:31:36;;;;;;;0.70;0.40;;;;;;;9.68;100.00;98803.78;5083341;28;20483;-63
2022/12/29 06:34:03;;;;;;;0.80;0.53;;;;;;;9.53;100.00;98818.81;5081657;28;20468;-63
2022/12/29 06:36:30;;;;;;;1.37;0.70;;;;;;;9.58;100.00;98793.31;5094886;28;20506;-63
2022/12/29 06:38:57;;;;;;;1.07;0.40;;;;;;;9.49;100.00;98794.31;5100046;28;20485;-64
2022/12/29 06:41:25;;;;;;;1.40;0.60;;;;;;;9.35;100.00;98787.00;5082858;28;20488;-63
2022/12/29 06:43:51;;;;;;;1.10;0.70;;;;;;;9.53;100.00;98793.00;5095577;28;20486;-63
2022/12/29 06:46:18;;;;;;;1.30;0.60;;;;;;;9.48;100.00;98802.50;5099417;28;20506;-64
2022/12/29 06:48:45;;;;;;;1.17;0.70;;;;;;;9.42;100.00;98804.00;5082380;28;20452;-63
2022/12/29 06:51:12;;;;;;;1.53;0.80;;;;;;;9.34;100.00;98796.88;5087026;28;20487;-63
2022/12/29 06:53:38;;;;;;;1.80;0.73;;;;;;;9.23;100.00;98798.03;5092803;28;20555;-63
2022/12/29 06:56:06;;;;;;;0.80;0.73;;;;;;;9.33;100.00;98807.69;5086678;28;20485;-64
2022/12/29 06:58:34;;;;;;;2.20;0.77;;;;;;;9.26;100.00;98814.72;5060639;28;21008;-64
2022/12/29 07:01:01;;;;;;;2.03;0.93;;;;;;;9.29;100.00;98817.88;5074801;28;20850;-64
2022/12/29 07:03:27;;;;;;;1.90;1.00;;;;;;;9.28;100.00;98802.84;5092632;28;21116;-64
2022/12/29 07:05:55;;;;;;;1.43;1.07;;;;;;;9.33;100.00;98813.03;5096123;28;20523;-64
2022/12/29 07:08:21;;;;;;;2.23;1.23;;;;;;;9.23;100.00;98826.53;5099430;28;21260;-63
2022/12/29 07:10:48;;;;;;;5.13;1.30;;;;;;;9.34;100.00;98839.53;5094420;28;20533;-64
2022/12/29 07:13:15;;;;;;;2.60;1.87;;;;;;;9.33;100.00;98824.53;5080794;28;20509;-63
2022/12/29 07:15:43;;;;;;;2.60;1.67;;;;;;;9.48;100.00;98827.34;5077133;28;20476;-63
2022/12/29 07:18:09;;;;;;;4.33;1.70;;;;;;;9.47;100.00;98836.34;5082803;28;20460;-63
2022/12/29 07:20:36;;;;;;;1.63;1.37;;;;;;;9.50;100.00;98833.34;5085003;28;20478;-63
2022/12/29 07:23:03;;;;;;;1.93;1.57;;;;;;;9.48;100.00;98835.34;5101286;28;20973;-63
2022/12/29 07:25:30;;;;;;;2.43;1.87;;;;;;;9.57;100.00;98844.19;5096572;28;20710;-64
2022/12/29 07:27:57;;;;;;;1.87;1.20;;;;;;;9.51;100.00;98843.03;5099340;28;20523;-63
2022/12/29 07:30:23;;;;;;;2.60;1.40;;;;;;;9.72;100.00;98849.66;5082814;28;20453;-63
2022/12/29 07:32:54;;;;;;;2.20;1.10;;;;;;;9.70;100.00;98835.66;5094823;28;20880;-64
2022/12/29 07:35:21;;;;;;;1.23;1.13;;;;;;;9.76;100.00;98827.81;5085398;28;20513;-64
2022/12/29 07:37:49;;;;;;;1.77;1.30;;;;;;;9.64;100.00;98850.50;5097683;28;20863;-64
2022/12/29 07:40:16;;;;;;;5.00;1.60;;;;;;;9.74;100.00;98832.47;5066628;28;20492;-63
2022/12/29 07:42:42;;;;;;;3.90;2.00;;;;;;;9.74;100.00;98826.31;5088104;28;20498;-64
2022/12/29 07:45:10;;;;;;;2.07;1.47;;;;;;;9.92;99.40;98836.78;5079150;28;20527;-64
2022/12/29 07:47:36;;;;;;;3.80;1.40;;;;;;;9.75;99.78;98850.13;5100264;28;20469;-64
2022/12/29 07:50:06;;;;;;;2.37;1.37;;;;;;;9.79;98.91;98851.47;5086420;28;20456;-73
2022/12/29 07:52:32;;;;;;;3.07;1.63;;;;;;;9.91;97.74;98862.66;5079196;28;20876;-65
2022/12/29 07:55:00;;;;;;;6.00;1.70;;;;;;;9.91;97.80;98861.78;5079625;28;20469;-65
2022/12/29 07:57:27;;;;;;;6.03;1.40;;;;;;;10.00;97.17;98874.13;5095352;28;20564;-64
2022/12/29 07:59:53;;;;;;;3.37;1.20;;;;;;;10.02;96.70;98877.47;5100852;28;20455;-65
2022/12/29 08:02:20;;;;;;;2.33;1.10;;;;;;;10.03;96.92;98881.78;5083776;28;20468;-64
2022/12/29 08:04:47;;;;;;;8.70;1.63;;;;;;;10.00;96.93;98879.47;5087527;28;20452;-65
2022/12/29 08:07:15;;;;;;;3.30;1.10;;;;;;;10.12;95.94;98874.56;5084155;28;20476;-65
2022/12/29 08:09:42;;;;;;;1.20;0.80;;;;;;;10.00;96.58;98874.13;5090822;28;20452;-65
2022/12/29 08:12:10;;;;;;;2.07;1.30;;;;;;;10.05;96.75;98862.91;5083726;28;20480;-65
2022/12/29 08:14:37;;;;;;;5.17;1.43;;;;;;;10.06;96.57;98884.13;5084758;28;20523;-65
2022/12/29 08:17:04;;;;;;;1.87;1.23;;;;;;;10.13;96.50;98886.94;5082379;28;20505;-65
2022/12/29 08:19:30;;;;;;;2.33;1.07;;;;;;;10.16;95.86;98887.44;5084215;28;20463;-65
2022/12/29 08:21:57;;;;;;;2.23;1.47;;;;;;;10.24;95.47;98893.75;5084743;28;20476;-65
2022/12/29 08:24:25;;;;;;;2.57;1.57;;;;;;;10.27;94.79;98888.06;5086617;28;20448;-71
2022/12/29 08:26:52;;;;;;;5.10;1.43;;;;;;;10.19;95.38;98888.94;5088634;28;20475;-71
2022/12/29 08:29:19;;;;;;;2.37;1.10;;;;;;;10.22;94.48;98891.25;5087153;28;20451;-71
2022/12/29 08:31:46;;;;;;;3.53;1.20;;;;;;;10.16;94.41;98894.63;5087356;28;21079;-71
2022/12/29 08:34:13;;;;;;;2.73;1.43;;;;;;;10.14;94.70;98891.28;5091145;28;20489;-71
2022/12/29 08:36:39;;;;;;;4.43;1.63;;;;;;;10.32;93.12;98899.09;5100594;28;20487;-71
2022/12/29 08:39:06;;;;;;;2.57;1.70;;;;;;;10.26;93.20;98899.75;5101321;28;20479;-71
2022/12/29 08:41:35;;;;;;;3.83;1.70;;;;;;;10.29;93.00;98896.72;5095683;28;20475;-71
2022/12/29 08:44:01;;;;;;;3.93;1.17;;;;;;;10.48;92.37;98888.34;5083864;28;21053;-71
2022/12/29 08:46:28;;;;;;;1.20;1.10;;;;;;;10.46;92.29;98901.03;5080460;28;20522;-71
2022/12/29 08:48:55;;;;;;;5.20;1.40;;;;;;;10.54;92.48;98911.72;5095194;28;20723;-71
2022/12/29 08:51:22;;;;;;;1.23;1.10;;;;;;;10.56;92.82;98906.19;5088855;28;20497;-71
2022/12/29 08:53:48;;;;;;;3.50;1.60;;;;;;;10.44;93.31;98903.06;5080569;28;20456;-71
2022/12/29 08:56:15;;;;;;;2.70;1.30;;;;;;;10.46;94.59;98906.38;5094548;28;20478;-71
2022/12/29 08:58:43;;;;;;;3.10;1.30;;;;;;;10.30;95.11;98903.75;5082975;28;20483;-71
2022/12/29 09:01:11;;;;;;;1.33;1.10;;;;;;;10.34;94.89;98910.44;5100406;28;20513;-71
2022/12/29 09:03:38;;;;;;;2.50;0.83;;;;;;;10.28;94.62;98911.13;5088520;28;20866;-71
2022/12/29 09:06:05;;;;;;;1.77;1.20;;;;;;;10.36;95.53;98921.78;5080916;28;20538;-71
2022/12/29 09:08:32;;;;;;;3.17;1.50;;;;;;;10.33;96.46;98925.66;5068500;28;20965;-71
2022/12/29 09:11:07;;;;;;;5.30;1.50;;;;;;;10.27;97.44;98926.28;5080167;28;20464;-71
2022/12/29 09:13:34;;;;;;;2.53;1.47;;;;;;;10.24;98.31;98921.31;5081062;28;20911;-71
2022/12/29 09:16:02;;;;;;;1.50;1.40;;;;;;;10.23;99.12;98918.81;5079595;28;20473;-71
2022/12/29 09:18:29;;;;;;;2.13;1.47;;;;;;;10.17;99.34;98915.81;5081566;28;20452;-71
2022/12/29 09:20:57;;;;;;;1.40;1.30;;;;;;;11.36;92.36;98902.38;5079773;28;20494;-71
2022/12/29 09:23:24;;;;;;;1.87;1.40;;;;;;;11.11;92.24;98904.41;5082240;28;20945;-71
2022/12/29 09:25:51;;;;;;;3.87;1.20;;;;;;;11.29;93.18;98904.09;5080551;28;20460;-71
2022/12/29 09:28:18;;;;;;;2.73;1.57;;;;;;;11.52;89.61;98904.09;5081988;28;20453;-71
2022/12/29 09:30:45;;;;;;;4.27;1.50;;;;;;;11.50;89.54;98903.44;5078275;28;20472;-71
2022/12/29 09:33:16;;;;;;;1.70;1.27;;;;;;;11.19;90.75;98909.69;5080977;28;20471;-71
2022/12/29 09:35:43;;;;;;;2.43;1.90;;;;;;;11.22;92.06;98912.00;5080830;28;21028;-71
2022/12/29 09:38:10;;;;;;;2.50;1.70;;;;;;;10.93;91.63;98932.22;5082576;28;20456;-70
2022/12/29 09:40:38;;;;;;;1.57;1.10;;;;;;;11.34;90.54;98925.81;5076673;28;20773;-70
2022/12/29 09:43:14;;;;;;;3.67;1.63;;;;;;;11.31;87.53;98918.97;5079062;28;20452;-69
2022/12/29 09:45:43;;;;;;;2.67;1.53;;;;;;;11.29;86.29;98912.13;5074039;28;20471;-70
2022/12/29 09:48:17;;;;;;;2.43;1.10;;;;;;;11.23;87.39;98919.03;5078877;28;20471;-70
2022/12/29 09:50:45;;;;;;;4.10;1.97;;;;;;;11.11;87.17;98923.97;5076054;28;20473;-69
2022/12/29 09:53:16;;;;;;;2.97;1.53;;;;;;;10.92;87.42;98933.25;5078156;28;20451;-70
2022/12/29 09:55:46;;;;;;;3.13;1.37;;;;;;;10.77;87.04;98926.16;5076118;28;20512;-70
2022/12/29 09:58:17;;;;;;;5.30;1.40;;;;;;;10.82;87.27;98931.81;5077462;28;20506;-69
2022/12/29 10:00:49;;;;;;;4.53;1.67;;;;;;;10.77;85.94;98924.31;5078087;28;20483;-62
2022/12/29 10:03:19;;;;;;;4.37;1.90;;;;;;;10.83;84.38;98933.47;5081105;28;20930;-70
2022/12/29 10:05:49;;;;;;;4.00;1.30;;;;;;;11.17;82.73;98937.63;5078866;28;20525;-69
2022/12/29 10:08:25;;;;;;;4.27;1.43;;;;;;;11.09;83.13;98925.13;5079388;28;20452;-70
2022/12/29 10:10:55;;;;;;;4.00;2.03;;;;;;;10.92;84.33;98930.59;5078922;28;20472;-70
2022/12/29 10:13:30;;;;;;;3.00;1.40;;;;;;;10.80;83.34;98925.78;5079003;28;20454;-70
2022/12/29 10:16:02;;;;;;;4.30;1.20;;;;;;;10.80;83.78;98925.78;5077223;28;20483;-69
2022/12/29 10:18:54;;;;;;;5.70;1.53;;;;;;;10.89;81.32;98938.94;5077991;28;20463;-69
2022/12/29 10:21:28;;;;;;;2.97;1.20;;;;;;;11.22;78.29;98932.59;5076616;28;20513;-70
2022/12/29 10:23:55;;;;;;;3.70;1.30;;;;;;;11.88;75.69;98932.91;5078516;28;20445;-69
2022/12/29 10:26:24;;;;;;;3.20;1.20;;;;;;;13.40;69.37;98921.72;5078549;28;20494;-69
2022/12/29 10:28:55;;;;;;;2.00;1.13;;;;;;;13.82;66.65;98932.63;5077605;28;21770;-69
2022/12/29 10:31:24;;;;;;;2.30;1.47;;;;;;;15.15;61.10;98927.19;5079481;28;20480;-70
2022/12/29 10:33:55;;;;;;;3.63;1.33;;;;;;;15.39;60.03;98932.00;5078750;28;20488;-70
2022/12/29 10:36:25;;;;;;;2.80;1.07;;;;;;;16.16;57.21;98923.56;5077354;28;20477;-70
2022/12/29 10:39:01;;;;;;;3.57;1.40;;;;;;;14.65;61.03;98941.72;5078878;28;20488;-69
2022/12/29 10:41:37;;;;;;;2.77;1.17;;;;;;;14.32;61.24;98936.09;5076797;28;20681;-69
2022/12/29 10:44:04;;;;;;;6.80;1.60;;;;;;;12.90;66.84;98926.13;5076954;28;20451;-70
2022/12/29 10:46:34;;;;;;;3.70;1.40;;;;;;;11.83;70.47;98922.72;5077443;28;20465;-70
2022/12/29 10:49:02;;;;;;;2.33;1.60;;;;;;;11.62;71.71;98927.94;5076330;28;20446;-70
2022/12/29 10:51:33;;;;;;;4.63;1.60;;;;;;;11.58;72.90;98931.97;5076805;28;20521;-70
2022/12/29 10:54:03;;;;;;;6.30;1.27;;;;;;;11.66;71.55;98924.72;5078377;28;20448;-70
2022/12/29 10:56:34;;;;;;;4.63;1.77;;;;;;;11.61;71.43;98929.81;5077290;28;20475;-70
2022/12/29 10:59:03;;;;;;;5.40;1.40;;;;;;;11.47;70.31;98923.38;5078273;28;20495;-70
2022/12/29 11:01:45;;;;;;;7.50;1.87;;;;;;;11.43;70.29;98926.59;5075581;28;20483;-70
2022/12/29 11:04:26;;;;;;;5.93;1.50;;;;;;;11.36;70.69;98907.72;5078498;28;20498;-70
2022/12/29 11:06:54;;;;;;;6.40;1.67;;;;;;;11.50;70.04;98924.84;5076972;28;21042;-69
2022/12/29 11:09:25;;;;;;;7.93;1.80;;;;;;;11.57;71.15;98917.75;5073594;28;20463;-69
2022/12/29 11:11:52;;;;;;;3.80;1.70;;;;;;;11.56;71.01;98925.97;5077724;28;20464;-69
2022/12/29 11:14:20;;;;;;;7.87;1.73;;;;;;;11.48;71.59;98937.59;5076604;28;20453;-69
2022/12/29 11:16:57;;;;;;;7.63;2.00;;;;;;;11.41;72.30;98936.63;5073897;28;20525;-69
2022/12/29 11:19:27;;;;;;;7.00;1.83;;;;;;;11.27;73.52;98919.50;5069796;28;20506;-69
2022/12/29 11:21:55;;;;;;;5.20;1.80;;;;;;;11.27;74.04;98933.72;5075238;28;20472;-69
2022/12/29 11:24:23;;;;;;;7.03;1.57;;;;;;;11.35;75.03;98922.09;5065731;28;20863;-69
2022/12/29 11:26:52;;;;;;;3.40;1.57;;;;;;;11.19;75.26;98931.09;5075043;28;20464;-69
2022/12/29 11:29:26;;;;;;;5.73;1.43;;;;;;;11.24;75.23;98930.56;5069010;28;20467;-69
2022/12/29 11:31:55;;;;;;;9.63;1.60;;;;;;;11.11;75.10;98928.47;5080006;28;20476;-70
2022/12/29 11:34:25;;;;;;;3.30;1.37;;;;;;;11.22;75.99;98925.38;5086512;28;20500;-69
2022/12/29 11:36:54;;;;;;;4.73;1.07;;;;;;;11.08;76.47;98926.97;5084647;28;20497;-70
2022/12/29 11:39:29;;;;;;;4.33;1.53;;;;;;;11.11;76.42;98931.16;5079373;28;20541;-70
2022/12/29 11:41:56;;;;;;;3.73;1.20;;;;;;;11.11;76.07;98933.84;5078172;28;20972;-70
2022/12/29 11:44:23;;;;;;;6.00;2.07;;;;;;;11.15;76.39;98942.34;5081528;28;20785;-70
2022/12/29 11:46:51;;;;;;;4.00;1.13;;;;;;;11.09;76.87;98944.69;5081992;28;20499;-70
2022/12/29 11:49:21;;;;;;;4.70;1.10;;;;;;;11.18;75.97;98940.13;5081653;28;20482;-70
2022/12/29 11:51:51;;;;;;;2.73;1.23;;;;;;;11.25;76.12;98935.75;5081335;28;20483;-70
2022/12/29 11:54:22;;;;;;;4.13;1.17;;;;;;;11.20;76.01;98935.44;5075809;28;20551;-70
2022/12/29 11:56:50;;;;;;;5.53;1.43;;;;;;;11.11;76.49;98944.53;5081394;28;20476;-70
2022/12/29 11:59:42;;;;;;;4.93;1.50;;;;;;;11.19;76.83;98936.44;5077739;28;20460;-70
2022/12/29 12:02:36;;;;;;;3.50;1.43;;;;;;;11.17;76.46;98943.81;5077915;28;20518;-70
2022/12/29 12:05:09;;;;;;;6.70;1.73;;;;;;;11.22;75.91;98940.63;5082601;28;20440;-71
2022/12/29 12:07:45;;;;;;;4.07;1.23;;;;;;;11.27;75.04;98932.88;5081661;28;20491;-70
2022/12/29 12:10:18;;;;;;;4.67;1.10;;;;;;;11.09;74.02;98943.84;5088395;28;20443;-70
2022/12/29 12:12:49;;;;;;;3.90;1.37;;;;;;;11.22;74.24;98941.44;5072101;28;20475;-69
2022/12/29 12:15:21;;;;;;;7.77;2.20;;;;;;;11.23;72.73;98961.00;5084706;28;20479;-70
2022/12/29 12:17:52;;;;;;;2.83;1.17;;;;;;;11.17;73.61;98946.47;5067387;28;20440;-69